sensor_id;sensor_type;location;lat;lon;timestamp;P1;durP1;ratioP1;P2;durP2;ratioP2
42140;SDS011;27809;51.864;5.646;2023-07-02T00:01:33;10.77;;;3.20;;
42140;SDS011;27809;51.864;5.646;2023-07-02T00:03:59;16.20;;;4.53;;
42140;SDS011;27809;51.864;5.646;2023-07-02T00:06:24;17.77;;;5.35;;
42140;SDS011;27809;51.864;5.646;2023-07-02T00:08:50;13.35;;;3.90;;
42140;SDS011;27809;51.864;5.646;2023-07-02T00:11:16;15.02;;;4.75;;
42140;SDS011;27809;51.864;5.646;2023-07-02T00:13:41;13.13;;;4.80;;
42140;SDS011;27809;51.864;5.646;2023-07-02T00:16:07;11.98;;;4.78;;
42140;SDS011;27809;51.864;5.646;2023-07-02T00:18:32;13.13;;;4.30;;
42140;SDS011;27809;51.864;5.646;2023-07-02T00:21:01;16.25;;;4.18;;
42140;SDS011;27809;51.864;5.646;2023-07-02T00:23:29;15.18;;;6.07;;
42140;SDS011;27809;51.864;5.646;2023-07-02T00:25:58;16.23;;;4.15;;
42140;SDS011;27809;51.864;5.646;2023-07-02T00:28:24;11.27;;;4.68;;
42140;SDS011;27809;51.864;5.646;2023-07-02T00:30:49;13.48;;;4.30;;
42140;SDS011;27809;51.864;5.646;2023-07-02T00:33:15;15.93;;;5.25;;
42140;SDS011;27809;51.864;5.646;2023-07-02T00:35:41;26.20;;;6.40;;
42140;SDS011;27809;51.864;5.646;2023-07-02T00:38:06;14.60;;;4.63;;
42140;SDS011;27809;51.864;5.646;2023-07-02T00:40:32;10.90;;;4.38;;
42140;SDS011;27809;51.864;5.646;2023-07-02T00:42:57;14.85;;;6.90;;
42140;SDS011;27809;51.864;5.646;2023-07-02T00:45:23;9.90;;;4.90;;
42140;SDS011;27809;51.864;5.646;2023-07-02T00:47:53;12.55;;;4.85;;
42140;SDS011;27809;51.864;5.646;2023-07-02T00:50:19;10.27;;;2.70;;
42140;SDS011;27809;51.864;5.646;2023-07-02T00:52:48;10.60;;;3.28;;
42140;SDS011;27809;51.864;5.646;2023-07-02T00:55:14;14.18;;;3.67;;
42140;SDS011;27809;51.864;5.646;2023-07-02T00:57:39;11.07;;;3.47;;
42140;SDS011;27809;51.864;5.646;2023-07-02T01:00:06;17.75;;;4.32;;
42140;SDS011;27809;51.864;5.646;2023-07-02T01:02:32;14.98;;;3.78;;
42140;SDS011;27809;51.864;5.646;2023-07-02T01:04:57;13.10;;;3.35;;
42140;SDS011;27809;51.864;5.646;2023-07-02T01:07:24;13.65;;;4.70;;
42140;SDS011;27809;51.864;5.646;2023-07-02T01:09:50;11.75;;;3.45;;
42140;SDS011;27809;51.864;5.646;2023-07-02T01:12:16;17.27;;;4.20;;
42140;SDS011;27809;51.864;5.646;2023-07-02T01:14:44;10.38;;;4.07;;
42140;SDS011;27809;51.864;5.646;2023-07-02T01:17:18;13.80;;;3.47;;
42140;SDS011;27809;51.864;5.646;2023-07-02T01:22:18;11.63;;;3.22;;
42140;SDS011;27809;51.864;5.646;2023-07-02T01:24:45;15.57;;;3.88;;
42140;SDS011;27809;51.864;5.646;2023-07-02T01:27:16;10.85;;;3.75;;
42140;SDS011;27809;51.864;5.646;2023-07-02T01:29:42;10.27;;;3.45;;
42140;SDS011;27809;51.864;5.646;2023-07-02T01:32:11;14.88;;;4.30;;
42140;SDS011;27809;51.864;5.646;2023-07-02T01:34:38;10.90;;;3.75;;
42140;SDS011;27809;51.864;5.646;2023-07-02T01:37:03;10.52;;;4.18;;
42140;SDS011;27809;51.864;5.646;2023-07-02T01:39:29;9.57;;;4.15;;
42140;SDS011;27809;51.864;5.646;2023-07-02T01:42:06;12.88;;;3.20;;
42140;SDS011;27809;51.864;5.646;2023-07-02T01:44:45;13.15;;;3.10;;
42140;SDS011;27809;51.864;5.646;2023-07-02T01:47:17;13.93;;;5.55;;
42140;SDS011;27809;51.864;5.646;2023-07-02T01:49:44;12.85;;;3.67;;
42140;SDS011;27809;51.864;5.646;2023-07-02T01:52:10;19.40;;;3.85;;
42140;SDS011;27809;51.864;5.646;2023-07-02T01:54:35;7.93;;;3.55;;
42140;SDS011;27809;51.864;5.646;2023-07-02T01:57:01;9.57;;;3.65;;
42140;SDS011;27809;51.864;5.646;2023-07-02T01:59:27;10.15;;;3.35;;
42140;SDS011;27809;51.864;5.646;2023-07-02T02:01:53;15.38;;;4.03;;
42140;SDS011;27809;51.864;5.646;2023-07-02T02:04:18;15.68;;;4.95;;
42140;SDS011;27809;51.864;5.646;2023-07-02T02:06:44;16.80;;;5.60;;
42140;SDS011;27809;51.864;5.646;2023-07-02T02:09:09;16.13;;;5.32;;
42140;SDS011;27809;51.864;5.646;2023-07-02T02:11:39;12.60;;;3.50;;
42140;SDS011;27809;51.864;5.646;2023-07-02T02:14:06;15.93;;;4.65;;
42140;SDS011;27809;51.864;5.646;2023-07-02T02:16:32;12.23;;;4.25;;
42140;SDS011;27809;51.864;5.646;2023-07-02T02:19:00;7.22;;;3.63;;
42140;SDS011;27809;51.864;5.646;2023-07-02T02:21:26;9.55;;;3.58;;
42140;SDS011;27809;51.864;5.646;2023-07-02T02:23:52;9.75;;;3.00;;
42140;SDS011;27809;51.864;5.646;2023-07-02T02:26:17;17.33;;;3.72;;
42140;SDS011;27809;51.864;5.646;2023-07-02T02:28:46;11.20;;;3.85;;
42140;SDS011;27809;51.864;5.646;2023-07-02T02:31:11;17.73;;;5.13;;
42140;SDS011;27809;51.864;5.646;2023-07-02T02:33:37;9.05;;;4.22;;
42140;SDS011;27809;51.864;5.646;2023-07-02T02:36:03;12.00;;;4.80;;
42140;SDS011;27809;51.864;5.646;2023-07-02T02:38:28;10.90;;;4.05;;
42140;SDS011;27809;51.864;5.646;2023-07-02T02:40:54;20.08;;;4.20;;
42140;SDS011;27809;51.864;5.646;2023-07-02T02:43:19;13.75;;;3.58;;
42140;SDS011;27809;51.864;5.646;2023-07-02T02:45:46;14.20;;;3.70;;
42140;SDS011;27809;51.864;5.646;2023-07-02T02:48:11;10.00;;;4.20;;
42140;SDS011;27809;51.864;5.646;2023-07-02T02:50:37;14.50;;;4.80;;
42140;SDS011;27809;51.864;5.646;2023-07-02T02:53:08;13.80;;;3.70;;
42140;SDS011;27809;51.864;5.646;2023-07-02T02:55:33;14.63;;;4.93;;
42140;SDS011;27809;51.864;5.646;2023-07-02T02:58:00;9.40;;;3.38;;
42140;SDS011;27809;51.864;5.646;2023-07-02T03:00:25;10.65;;;4.38;;
42140;SDS011;27809;51.864;5.646;2023-07-02T03:02:51;12.38;;;5.00;;
42140;SDS011;27809;51.864;5.646;2023-07-02T03:05:16;9.05;;;3.63;;
42140;SDS011;27809;51.864;5.646;2023-07-02T03:07:42;15.68;;;5.00;;
42140;SDS011;27809;51.864;5.646;2023-07-02T03:10:08;13.63;;;3.67;;
42140;SDS011;27809;51.864;5.646;2023-07-02T03:12:34;7.80;;;4.22;;
42140;SDS011;27809;51.864;5.646;2023-07-02T03:14:59;12.93;;;3.33;;
42140;SDS011;27809;51.864;5.646;2023-07-02T03:17:25;12.15;;;3.92;;
42140;SDS011;27809;51.864;5.646;2023-07-02T03:19:51;14.25;;;4.53;;
42140;SDS011;27809;51.864;5.646;2023-07-02T03:22:16;14.88;;;4.38;;
42140;SDS011;27809;51.864;5.646;2023-07-02T03:24:42;10.57;;;3.00;;
42140;SDS011;27809;51.864;5.646;2023-07-02T03:27:07;17.42;;;4.10;;
42140;SDS011;27809;51.864;5.646;2023-07-02T03:29:36;10.18;;;3.80;;
42140;SDS011;27809;51.864;5.646;2023-07-02T03:32:03;11.65;;;3.85;;
42140;SDS011;27809;51.864;5.646;2023-07-02T03:34:29;13.52;;;4.93;;
42140;SDS011;27809;51.864;5.646;2023-07-02T03:36:55;19.13;;;7.30;;
42140;SDS011;27809;51.864;5.646;2023-07-02T03:39:20;28.23;;;4.07;;
42140;SDS011;27809;51.864;5.646;2023-07-02T03:41:46;13.00;;;4.13;;
42140;SDS011;27809;51.864;5.646;2023-07-02T03:44:12;14.52;;;3.92;;
42140;SDS011;27809;51.864;5.646;2023-07-02T03:46:37;13.85;;;5.03;;
42140;SDS011;27809;51.864;5.646;2023-07-02T03:49:03;11.98;;;4.60;;
42140;SDS011;27809;51.864;5.646;2023-07-02T03:51:28;15.85;;;3.97;;
42140;SDS011;27809;51.864;5.646;2023-07-02T03:53:55;11.70;;;5.25;;
42140;SDS011;27809;51.864;5.646;2023-07-02T03:56:20;17.83;;;4.80;;
42140;SDS011;27809;51.864;5.646;2023-07-02T03:58:46;15.90;;;5.55;;
42140;SDS011;27809;51.864;5.646;2023-07-02T04:01:11;16.77;;;4.55;;
42140;SDS011;27809;51.864;5.646;2023-07-02T04:03:37;23.13;;;4.65;;
42140;SDS011;27809;51.864;5.646;2023-07-02T04:06:03;12.73;;;4.03;;
42140;SDS011;27809;51.864;5.646;2023-07-02T04:08:30;20.15;;;4.20;;
42140;SDS011;27809;51.864;5.646;2023-07-02T04:10:56;9.05;;;3.40;;
42140;SDS011;27809;51.864;5.646;2023-07-02T04:13:22;16.60;;;3.50;;
42140;SDS011;27809;51.864;5.646;2023-07-02T04:15:47;13.80;;;3.65;;
42140;SDS011;27809;51.864;5.646;2023-07-02T04:18:13;11.50;;;3.45;;
42140;SDS011;27809;51.864;5.646;2023-07-02T04:20:38;18.08;;;3.90;;
42140;SDS011;27809;51.864;5.646;2023-07-02T04:23:04;16.45;;;4.88;;
42140;SDS011;27809;51.864;5.646;2023-07-02T04:25:33;18.30;;;4.97;;
42140;SDS011;27809;51.864;5.646;2023-07-02T04:27:58;21.20;;;5.82;;
42140;SDS011;27809;51.864;5.646;2023-07-02T04:30:24;22.45;;;5.55;;
42140;SDS011;27809;51.864;5.646;2023-07-02T04:32:50;22.77;;;6.10;;
42140;SDS011;27809;51.864;5.646;2023-07-02T04:35:16;14.10;;;4.97;;
42140;SDS011;27809;51.864;5.646;2023-07-02T04:37:42;15.40;;;5.22;;
42140;SDS011;27809;51.864;5.646;2023-07-02T04:40:08;12.70;;;4.80;;
42140;SDS011;27809;51.864;5.646;2023-07-02T04:42:35;14.57;;;4.70;;
42140;SDS011;27809;51.864;5.646;2023-07-02T04:45:03;19.85;;;4.32;;
42140;SDS011;27809;51.864;5.646;2023-07-02T04:47:29;13.18;;;3.88;;
42140;SDS011;27809;51.864;5.646;2023-07-02T04:49:55;14.75;;;4.95;;
42140;SDS011;27809;51.864;5.646;2023-07-02T04:52:21;20.75;;;5.35;;
42140;SDS011;27809;51.864;5.646;2023-07-02T04:54:46;13.25;;;3.95;;
42140;SDS011;27809;51.864;5.646;2023-07-02T04:57:12;17.40;;;5.22;;
42140;SDS011;27809;51.864;5.646;2023-07-02T04:59:39;14.20;;;4.90;;
42140;SDS011;27809;51.864;5.646;2023-07-02T05:02:06;13.52;;;5.20;;
42140;SDS011;27809;51.864;5.646;2023-07-02T05:04:31;14.63;;;4.60;;
42140;SDS011;27809;51.864;5.646;2023-07-02T05:06:57;19.25;;;3.80;;
42140;SDS011;27809;51.864;5.646;2023-07-02T05:09:22;20.13;;;5.18;;
42140;SDS011;27809;51.864;5.646;2023-07-02T05:11:48;17.02;;;5.75;;
42140;SDS011;27809;51.864;5.646;2023-07-02T05:14:13;20.67;;;5.55;;
42140;SDS011;27809;51.864;5.646;2023-07-02T05:16:39;15.43;;;5.00;;
42140;SDS011;27809;51.864;5.646;2023-07-02T05:19:04;17.80;;;6.15;;
42140;SDS011;27809;51.864;5.646;2023-07-02T05:21:30;24.15;;;7.38;;
42140;SDS011;27809;51.864;5.646;2023-07-02T05:23:55;14.80;;;4.63;;
42140;SDS011;27809;51.864;5.646;2023-07-02T05:26:21;17.30;;;5.20;;
42140;SDS011;27809;51.864;5.646;2023-07-02T05:28:46;17.05;;;6.28;;
42140;SDS011;27809;51.864;5.646;2023-07-02T05:31:13;20.23;;;5.13;;
42140;SDS011;27809;51.864;5.646;2023-07-02T05:33:38;13.73;;;3.72;;
42140;SDS011;27809;51.864;5.646;2023-07-02T05:36:04;15.93;;;3.75;;
42140;SDS011;27809;51.864;5.646;2023-07-02T05:38:29;22.48;;;5.07;;
42140;SDS011;27809;51.864;5.646;2023-07-02T05:40:55;21.88;;;5.90;;
42140;SDS011;27809;51.864;5.646;2023-07-02T05:43:21;22.00;;;4.35;;
42140;SDS011;27809;51.864;5.646;2023-07-02T05:45:46;20.55;;;5.13;;
42140;SDS011;27809;51.864;5.646;2023-07-02T05:48:12;18.02;;;4.78;;
42140;SDS011;27809;51.864;5.646;2023-07-02T05:50:37;22.73;;;4.63;;
42140;SDS011;27809;51.864;5.646;2023-07-02T05:53:03;13.35;;;3.58;;
42140;SDS011;27809;51.864;5.646;2023-07-02T05:55:28;9.30;;;4.13;;
42140;SDS011;27809;51.864;5.646;2023-07-02T05:57:54;11.00;;;4.78;;
42140;SDS011;27809;51.864;5.646;2023-07-02T06:00:22;21.58;;;5.03;;
42140;SDS011;27809;51.864;5.646;2023-07-02T06:02:47;12.13;;;4.50;;
42140;SDS011;27809;51.864;5.646;2023-07-02T06:05:13;20.38;;;5.47;;
42140;SDS011;27809;51.864;5.646;2023-07-02T06:07:38;13.70;;;3.95;;
42140;SDS011;27809;51.864;5.646;2023-07-02T06:10:04;17.40;;;4.00;;
42140;SDS011;27809;51.864;5.646;2023-07-02T06:12:30;15.88;;;3.78;;
42140;SDS011;27809;51.864;5.646;2023-07-02T06:14:55;16.55;;;3.60;;
42140;SDS011;27809;51.864;5.646;2023-07-02T06:17:21;10.38;;;3.63;;
42140;SDS011;27809;51.864;5.646;2023-07-02T06:19:47;12.57;;;3.97;;
42140;SDS011;27809;51.864;5.646;2023-07-02T06:22:13;18.13;;;3.47;;
42140;SDS011;27809;51.864;5.646;2023-07-02T06:24:38;14.35;;;3.35;;
42140;SDS011;27809;51.864;5.646;2023-07-02T06:27:04;5.35;;;2.38;;
42140;SDS011;27809;51.864;5.646;2023-07-02T06:29:30;10.20;;;3.63;;
42140;SDS011;27809;51.864;5.646;2023-07-02T06:31:55;11.98;;;2.88;;
42140;SDS011;27809;51.864;5.646;2023-07-02T06:34:21;15.90;;;4.22;;
42140;SDS011;27809;51.864;5.646;2023-07-02T06:36:47;12.05;;;3.42;;
42140;SDS011;27809;51.864;5.646;2023-07-02T06:39:13;15.23;;;4.50;;
42140;SDS011;27809;51.864;5.646;2023-07-02T06:41:38;16.17;;;4.93;;
42140;SDS011;27809;51.864;5.646;2023-07-02T06:44:04;16.00;;;3.13;;
42140;SDS011;27809;51.864;5.646;2023-07-02T06:46:29;13.75;;;4.80;;
42140;SDS011;27809;51.864;5.646;2023-07-02T06:48:55;11.55;;;3.38;;
42140;SDS011;27809;51.864;5.646;2023-07-02T06:51:21;8.82;;;3.58;;
42140;SDS011;27809;51.864;5.646;2023-07-02T06:53:47;10.07;;;3.47;;
42140;SDS011;27809;51.864;5.646;2023-07-02T06:56:13;12.73;;;2.90;;
42140;SDS011;27809;51.864;5.646;2023-07-02T06:58:42;11.90;;;2.95;;
42140;SDS011;27809;51.864;5.646;2023-07-02T07:01:07;14.98;;;4.20;;
42140;SDS011;27809;51.864;5.646;2023-07-02T07:03:34;9.40;;;2.15;;
42140;SDS011;27809;51.864;5.646;2023-07-02T07:06:00;11.02;;;2.70;;
42140;SDS011;27809;51.864;5.646;2023-07-02T07:08:25;14.88;;;4.15;;
42140;SDS011;27809;51.864;5.646;2023-07-02T07:10:51;9.27;;;3.08;;
42140;SDS011;27809;51.864;5.646;2023-07-02T07:13:16;10.48;;;2.80;;
42140;SDS011;27809;51.864;5.646;2023-07-02T07:15:42;17.67;;;3.78;;
42140;SDS011;27809;51.864;5.646;2023-07-02T07:18:08;15.15;;;3.13;;
42140;SDS011;27809;51.864;5.646;2023-07-02T07:20:34;6.00;;;2.50;;
42140;SDS011;27809;51.864;5.646;2023-07-02T07:23:03;11.77;;;3.58;;
42140;SDS011;27809;51.864;5.646;2023-07-02T07:25:28;8.80;;;2.47;;
42140;SDS011;27809;51.864;5.646;2023-07-02T07:27:54;12.07;;;3.97;;
42140;SDS011;27809;51.864;5.646;2023-07-02T07:30:20;11.07;;;3.10;;
42140;SDS011;27809;51.864;5.646;2023-07-02T07:32:49;12.13;;;3.42;;
42140;SDS011;27809;51.864;5.646;2023-07-02T07:35:15;11.73;;;3.70;;
42140;SDS011;27809;51.864;5.646;2023-07-02T07:37:42;12.60;;;2.85;;
42140;SDS011;27809;51.864;5.646;2023-07-02T07:40:07;17.73;;;3.17;;
42140;SDS011;27809;51.864;5.646;2023-07-02T07:42:33;7.90;;;3.25;;
42140;SDS011;27809;51.864;5.646;2023-07-02T07:44:58;13.90;;;3.15;;
42140;SDS011;27809;51.864;5.646;2023-07-02T07:47:24;9.23;;;3.05;;
42140;SDS011;27809;51.864;5.646;2023-07-02T07:49:49;12.90;;;2.78;;
42140;SDS011;27809;51.864;5.646;2023-07-02T07:52:15;10.18;;;2.70;;
42140;SDS011;27809;51.864;5.646;2023-07-02T07:54:40;6.55;;;2.75;;
42140;SDS011;27809;51.864;5.646;2023-07-02T07:57:06;10.43;;;3.15;;
42140;SDS011;27809;51.864;5.646;2023-07-02T07:59:32;9.23;;;3.00;;
42140;SDS011;27809;51.864;5.646;2023-07-02T08:01:58;8.90;;;3.03;;
42140;SDS011;27809;51.864;5.646;2023-07-02T08:04:23;7.10;;;2.00;;
42140;SDS011;27809;51.864;5.646;2023-07-02T08:06:49;10.27;;;2.75;;
42140;SDS011;27809;51.864;5.646;2023-07-02T08:09:14;8.55;;;2.35;;
42140;SDS011;27809;51.864;5.646;2023-07-02T08:11:40;14.93;;;4.25;;
42140;SDS011;27809;51.864;5.646;2023-07-02T08:14:05;10.02;;;2.67;;
42140;SDS011;27809;51.864;5.646;2023-07-02T08:16:31;8.27;;;2.08;;
42140;SDS011;27809;51.864;5.646;2023-07-02T08:18:56;13.63;;;3.20;;
42140;SDS011;27809;51.864;5.646;2023-07-02T08:21:21;9.13;;;1.92;;
42140;SDS011;27809;51.864;5.646;2023-07-02T08:23:47;8.93;;;2.65;;
42140;SDS011;27809;51.864;5.646;2023-07-02T08:26:12;8.90;;;2.30;;
42140;SDS011;27809;51.864;5.646;2023-07-02T08:28:39;9.90;;;3.17;;
42140;SDS011;27809;51.864;5.646;2023-07-02T08:31:04;6.78;;;2.35;;
42140;SDS011;27809;51.864;5.646;2023-07-02T08:33:30;13.13;;;3.22;;
42140;SDS011;27809;51.864;5.646;2023-07-02T08:35:56;5.10;;;2.22;;
42140;SDS011;27809;51.864;5.646;2023-07-02T08:38:22;9.07;;;2.95;;
42140;SDS011;27809;51.864;5.646;2023-07-02T08:40:51;17.48;;;3.78;;
42140;SDS011;27809;51.864;5.646;2023-07-02T08:43:17;9.07;;;2.78;;
42140;SDS011;27809;51.864;5.646;2023-07-02T08:45:42;7.50;;;1.80;;
42140;SDS011;27809;51.864;5.646;2023-07-02T08:48:08;15.35;;;3.00;;
42140;SDS011;27809;51.864;5.646;2023-07-02T08:50:35;8.93;;;2.58;;
42140;SDS011;27809;51.864;5.646;2023-07-02T08:53:01;14.23;;;2.20;;
42140;SDS011;27809;51.864;5.646;2023-07-02T08:55:27;8.18;;;3.20;;
42140;SDS011;27809;51.864;5.646;2023-07-02T08:57:55;9.30;;;2.28;;
42140;SDS011;27809;51.864;5.646;2023-07-02T09:00:24;8.05;;;2.75;;
42140;SDS011;27809;51.864;5.646;2023-07-02T09:02:50;13.20;;;3.25;;
42140;SDS011;27809;51.864;5.646;2023-07-02T09:05:15;13.13;;;2.38;;
42140;SDS011;27809;51.864;5.646;2023-07-02T09:07:44;17.08;;;2.63;;
42140;SDS011;27809;51.864;5.646;2023-07-02T09:13:05;8.98;;;2.47;;
42140;SDS011;27809;51.864;5.646;2023-07-02T09:15:35;18.70;;;3.78;;
42140;SDS011;27809;51.864;5.646;2023-07-02T09:18:02;13.65;;;2.70;;
42140;SDS011;27809;51.864;5.646;2023-07-02T09:20:33;11.65;;;1.63;;
42140;SDS011;27809;51.864;5.646;2023-07-02T09:22:59;11.20;;;2.40;;
42140;SDS011;27809;51.864;5.646;2023-07-02T09:25:36;7.85;;;2.20;;
42140;SDS011;27809;51.864;5.646;2023-07-02T09:28:11;7.10;;;1.92;;
42140;SDS011;27809;51.864;5.646;2023-07-02T09:30:48;8.35;;;1.85;;
42140;SDS011;27809;51.864;5.646;2023-07-02T09:33:15;11.32;;;2.40;;
42140;SDS011;27809;51.864;5.646;2023-07-02T09:35:41;15.05;;;3.60;;
42140;SDS011;27809;51.864;5.646;2023-07-02T09:38:07;7.30;;;1.48;;
42140;SDS011;27809;51.864;5.646;2023-07-02T09:40:33;13.00;;;2.80;;
42140;SDS011;27809;51.864;5.646;2023-07-02T09:42:58;9.82;;;1.85;;
42140;SDS011;27809;51.864;5.646;2023-07-02T09:45:24;11.05;;;2.42;;
42140;SDS011;27809;51.864;5.646;2023-07-02T09:47:50;6.43;;;1.88;;
42140;SDS011;27809;51.864;5.646;2023-07-02T09:50:18;7.50;;;2.25;;
42140;SDS011;27809;51.864;5.646;2023-07-02T09:52:45;5.45;;;1.58;;
42140;SDS011;27809;51.864;5.646;2023-07-02T09:55:12;8.52;;;2.25;;
42140;SDS011;27809;51.864;5.646;2023-07-02T09:57:38;10.30;;;3.38;;
42140;SDS011;27809;51.864;5.646;2023-07-02T10:00:04;8.70;;;1.90;;
42140;SDS011;27809;51.864;5.646;2023-07-02T10:02:32;8.48;;;2.33;;
42140;SDS011;27809;51.864;5.646;2023-07-02T10:04:57;8.30;;;1.73;;
42140;SDS011;27809;51.864;5.646;2023-07-02T10:07:27;11.05;;;2.42;;
42140;SDS011;27809;51.864;5.646;2023-07-02T10:09:56;7.53;;;2.28;;
42140;SDS011;27809;51.864;5.646;2023-07-02T10:12:25;4.80;;;1.30;;
42140;SDS011;27809;51.864;5.646;2023-07-02T10:14:53;4.70;;;2.30;;
42140;SDS011;27809;51.864;5.646;2023-07-02T10:17:29;4.60;;;1.65;;
42140;SDS011;27809;51.864;5.646;2023-07-02T10:20:00;6.90;;;1.33;;
42140;SDS011;27809;51.864;5.646;2023-07-02T10:22:42;2.50;;;1.00;;
42140;SDS011;27809;51.864;5.646;2023-07-02T10:25:08;5.32;;;1.83;;
42140;SDS011;27809;51.864;5.646;2023-07-02T10:27:39;5.50;;;1.60;;
42140;SDS011;27809;51.864;5.646;2023-07-02T10:30:06;5.97;;;2.08;;
42140;SDS011;27809;51.864;5.646;2023-07-02T10:32:34;7.18;;;1.85;;
42140;SDS011;27809;51.864;5.646;2023-07-02T10:35:01;8.90;;;1.55;;
42140;SDS011;27809;51.864;5.646;2023-07-02T10:37:37;7.47;;;1.60;;
42140;SDS011;27809;51.864;5.646;2023-07-02T10:40:04;4.25;;;2.00;;
42140;SDS011;27809;51.864;5.646;2023-07-02T10:42:33;8.02;;;1.35;;
42140;SDS011;27809;51.864;5.646;2023-07-02T10:44:59;4.05;;;1.50;;
42140;SDS011;27809;51.864;5.646;2023-07-02T10:47:24;5.22;;;2.15;;
42140;SDS011;27809;51.864;5.646;2023-07-02T10:49:50;8.43;;;1.95;;
42140;SDS011;27809;51.864;5.646;2023-07-02T10:52:16;8.70;;;1.98;;
42140;SDS011;27809;51.864;5.646;2023-07-02T10:54:42;4.68;;;1.95;;
42140;SDS011;27809;51.864;5.646;2023-07-02T10:57:13;3.75;;;1.30;;
42140;SDS011;27809;51.864;5.646;2023-07-02T10:59:41;7.47;;;2.15;;
42140;SDS011;27809;51.864;5.646;2023-07-02T11:02:07;4.20;;;1.23;;
42140;SDS011;27809;51.864;5.646;2023-07-02T11:04:35;5.38;;;1.30;;
42140;SDS011;27809;51.864;5.646;2023-07-02T11:07:01;6.50;;;1.55;;
42140;SDS011;27809;51.864;5.646;2023-07-02T11:09:27;3.42;;;1.52;;
42140;SDS011;27809;51.864;5.646;2023-07-02T11:11:53;5.05;;;1.60;;
42140;SDS011;27809;51.864;5.646;2023-07-02T11:14:30;4.38;;;1.52;;
42140;SDS011;27809;51.864;5.646;2023-07-02T11:17:01;7.40;;;2.50;;
42140;SDS011;27809;51.864;5.646;2023-07-02T11:19:29;7.03;;;1.52;;
42140;SDS011;27809;51.864;5.646;2023-07-02T11:21:56;6.80;;;2.28;;
42140;SDS011;27809;51.864;5.646;2023-07-02T11:24:41;3.97;;;1.10;;
42140;SDS011;27809;51.864;5.646;2023-07-02T11:27:06;7.57;;;1.50;;
42140;SDS011;27809;51.864;5.646;2023-07-02T11:29:33;3.83;;;1.17;;
42140;SDS011;27809;51.864;5.646;2023-07-02T11:32:09;6.38;;;2.03;;
42140;SDS011;27809;51.864;5.646;2023-07-02T11:34:36;4.88;;;1.30;;
42140;SDS011;27809;51.864;5.646;2023-07-02T11:37:05;3.50;;;1.15;;
42140;SDS011;27809;51.864;5.646;2023-07-02T11:39:31;4.47;;;1.13;;
42140;SDS011;27809;51.864;5.646;2023-07-02T11:41:57;3.05;;;1.00;;
42140;SDS011;27809;51.864;5.646;2023-07-02T11:44:22;4.82;;;1.58;;
42140;SDS011;27809;51.864;5.646;2023-07-02T11:46:48;4.65;;;1.92;;
42140;SDS011;27809;51.864;5.646;2023-07-02T11:49:14;2.78;;;0.90;;
42140;SDS011;27809;51.864;5.646;2023-07-02T11:51:40;4.10;;;1.10;;
42140;SDS011;27809;51.864;5.646;2023-07-02T11:54:06;5.30;;;1.52;;
42140;SDS011;27809;51.864;5.646;2023-07-02T11:56:32;4.13;;;1.63;;
42140;SDS011;27809;51.864;5.646;2023-07-02T11:58:58;5.03;;;0.85;;
42140;SDS011;27809;51.864;5.646;2023-07-02T12:01:24;6.28;;;1.20;;
42140;SDS011;27809;51.864;5.646;2023-07-02T12:03:50;3.72;;;0.98;;
42140;SDS011;27809;51.864;5.646;2023-07-02T12:06:16;5.88;;;1.33;;
42140;SDS011;27809;51.864;5.646;2023-07-02T12:08:41;2.80;;;1.58;;
42140;SDS011;27809;51.864;5.646;2023-07-02T12:11:07;2.97;;;1.13;;
42140;SDS011;27809;51.864;5.646;2023-07-02T12:13:33;3.67;;;0.80;;
42140;SDS011;27809;51.864;5.646;2023-07-02T12:15:59;2.55;;;0.93;;
42140;SDS011;27809;51.864;5.646;2023-07-02T12:18:26;5.13;;;1.45;;
42140;SDS011;27809;51.864;5.646;2023-07-02T12:20:52;5.10;;;1.42;;
42140;SDS011;27809;51.864;5.646;2023-07-02T12:23:17;3.78;;;0.88;;
42140;SDS011;27809;51.864;5.646;2023-07-02T12:25:43;3.28;;;1.13;;
42140;SDS011;27809;51.864;5.646;2023-07-02T12:28:08;4.68;;;0.93;;
42140;SDS011;27809;51.864;5.646;2023-07-02T12:30:34;4.65;;;1.00;;
42140;SDS011;27809;51.864;5.646;2023-07-02T12:33:02;4.93;;;1.38;;
42140;SDS011;27809;51.864;5.646;2023-07-02T12:35:34;3.13;;;0.70;;
42140;SDS011;27809;51.864;5.646;2023-07-02T12:38:02;2.20;;;0.80;;
42140;SDS011;27809;51.864;5.646;2023-07-02T12:40:28;2.78;;;1.23;;
42140;SDS011;27809;51.864;5.646;2023-07-02T12:42:54;4.50;;;0.70;;
42140;SDS011;27809;51.864;5.646;2023-07-02T12:45:21;5.32;;;1.50;;
42140;SDS011;27809;51.864;5.646;2023-07-02T12:47:47;6.10;;;1.42;;
42140;SDS011;27809;51.864;5.646;2023-07-02T12:50:13;3.08;;;0.70;;
42140;SDS011;27809;51.864;5.646;2023-07-02T12:52:38;2.63;;;1.33;;
42140;SDS011;27809;51.864;5.646;2023-07-02T12:55:04;3.30;;;1.20;;
42140;SDS011;27809;51.864;5.646;2023-07-02T12:57:29;3.90;;;1.10;;
42140;SDS011;27809;51.864;5.646;2023-07-02T12:59:56;2.58;;;0.80;;
42140;SDS011;27809;51.864;5.646;2023-07-02T13:02:22;7.10;;;1.42;;
42140;SDS011;27809;51.864;5.646;2023-07-02T13:04:48;7.03;;;1.48;;
42140;SDS011;27809;51.864;5.646;2023-07-02T13:07:14;3.33;;;0.57;;
42140;SDS011;27809;51.864;5.646;2023-07-02T13:09:40;3.78;;;1.33;;
42140;SDS011;27809;51.864;5.646;2023-07-02T13:12:07;8.40;;;1.33;;
42140;SDS011;27809;51.864;5.646;2023-07-02T13:14:33;4.55;;;1.13;;
42140;SDS011;27809;51.864;5.646;2023-07-02T13:17:00;3.15;;;1.05;;
42140;SDS011;27809;51.864;5.646;2023-07-02T13:19:25;5.93;;;1.15;;
42140;SDS011;27809;51.864;5.646;2023-07-02T13:21:51;3.38;;;1.15;;
42140;SDS011;27809;51.864;5.646;2023-07-02T13:24:17;3.97;;;1.00;;
42140;SDS011;27809;51.864;5.646;2023-07-02T13:26:42;3.63;;;1.08;;
42140;SDS011;27809;51.864;5.646;2023-07-02T13:29:08;4.18;;;1.05;;
42140;SDS011;27809;51.864;5.646;2023-07-02T13:31:33;5.20;;;1.17;;
42140;SDS011;27809;51.864;5.646;2023-07-02T13:33:59;5.03;;;1.42;;
42140;SDS011;27809;51.864;5.646;2023-07-02T13:36:24;4.30;;;1.00;;
42140;SDS011;27809;51.864;5.646;2023-07-02T13:38:50;5.78;;;0.90;;
42140;SDS011;27809;51.864;5.646;2023-07-02T13:41:15;5.15;;;1.30;;
42140;SDS011;27809;51.864;5.646;2023-07-02T13:43:41;3.78;;;0.98;;
42140;SDS011;27809;51.864;5.646;2023-07-02T13:46:06;5.82;;;1.25;;
42140;SDS011;27809;51.864;5.646;2023-07-02T13:48:32;3.03;;;1.20;;
42140;SDS011;27809;51.864;5.646;2023-07-02T13:50:57;7.93;;;1.00;;
42140;SDS011;27809;51.864;5.646;2023-07-02T13:53:23;4.20;;;1.17;;
42140;SDS011;27809;51.864;5.646;2023-07-02T13:55:48;10.80;;;1.83;;
42140;SDS011;27809;51.864;5.646;2023-07-02T13:58:14;3.45;;;1.65;;
42140;SDS011;27809;51.864;5.646;2023-07-02T14:00:39;5.60;;;1.80;;
42140;SDS011;27809;51.864;5.646;2023-07-02T14:03:05;9.05;;;1.50;;
42140;SDS011;27809;51.864;5.646;2023-07-02T14:05:31;4.25;;;0.95;;
42140;SDS011;27809;51.864;5.646;2023-07-02T14:07:57;7.95;;;1.30;;
42140;SDS011;27809;51.864;5.646;2023-07-02T14:10:22;4.72;;;1.08;;
42140;SDS011;27809;51.864;5.646;2023-07-02T14:12:48;3.78;;;1.02;;
42140;SDS011;27809;51.864;5.646;2023-07-02T14:15:14;8.00;;;1.05;;
42140;SDS011;27809;51.864;5.646;2023-07-02T14:17:39;2.75;;;0.88;;
42140;SDS011;27809;51.864;5.646;2023-07-02T14:20:06;6.07;;;1.35;;
42140;SDS011;27809;51.864;5.646;2023-07-02T14:22:33;4.05;;;1.13;;
42140;SDS011;27809;51.864;5.646;2023-07-02T14:24:58;3.45;;;0.93;;
42140;SDS011;27809;51.864;5.646;2023-07-02T14:27:24;7.30;;;0.80;;
42140;SDS011;27809;51.864;5.646;2023-07-02T14:29:49;5.72;;;1.27;;
42140;SDS011;27809;51.864;5.646;2023-07-02T14:32:15;3.80;;;1.05;;
42140;SDS011;27809;51.864;5.646;2023-07-02T14:34:41;6.40;;;1.77;;
42140;SDS011;27809;51.864;5.646;2023-07-02T14:37:07;6.55;;;1.27;;
42140;SDS011;27809;51.864;5.646;2023-07-02T14:39:32;4.45;;;1.75;;
42140;SDS011;27809;51.864;5.646;2023-07-02T14:41:58;8.65;;;1.55;;